There are multiple Weather-warnings   Click here for more information


Meteo18 Weather Cam more information Meteo18 Weather Cam


Thunder radar more information blitzortung!


warning for Snow/Ice more information rain snow radar


Visit our other weather sites:

Template documentation
and downloads

And another site



Weather Underground History page Text

Daily Summary for July 7, 2017 Units:  Both    English   Metric
« Previous Day
Next Day »
Daily Weekly Monthly Yearly Custom
  High: Low: Average:
Temperature: TemperatureC °F /  -17.8 °C 19.6 °F /  -6.9 °C 26.2 °F /  -3.2 °C
Dew Point: DewpointC °F /  -17.8 °C 18.1 °F /  -7.7 °C 19.5 °F /  -6.9 °C
Humidity: Humidity % 45 % 68 %
Wind Speed: WindSpeedKMH mph /  0 km/h - 4.3 mph /  6.9 km/h
Wind Gust: WindSpeedGustKMH mph /  0 km/h - -
Wind:- - WSW
Pressure: PressurehPa in /  0 hPa 1017.5 in /  34452.6 hPa -
Precipitation: 0.0 in /  0 mm    
Historical Graphs
 
 
Tabular Data for July 7, 2017
Time Temperature Dew Point Pressure Wind Wind Speed Wind Gust Humidity Rainfall Rate (Hourly)
TemperatureC °F /  -17.8 °C DewpointC °F /  -17.8 °C PressurehPa in /  0 hPa Calm     Humidity % HourlyPrecipMM in /  0 mm
00:02 25.6 °F /  -3.6 °C 18.3 °F /  -7.6 °C 1018.2 in /  34476.3 hPa Calm     64 % 0.0 in /  0 mm
00:07 25.5 °F /  -3.6 °C 18.4 °F /  -7.6 °C 1017.8 in /  34462.7 hPa Calm     65 % 0.0 in /  0 mm
00:12 25.4 °F /  -3.7 °C 18.6 °F /  -7.4 °C 1017.8 in /  34462.7 hPa SSW 4.8 mph /  7.7 km/h 4.8 mph /  7.7 km/h 66 % 0.0 in /  0 mm
00:17 25.2 °F /  -3.8 °C 18.6 °F /  -7.4 °C 1018.2 in /  34476.3 hPa SSW 6.4 mph /  10.3 km/h 6.4 mph /  10.3 km/h 67 % 0.0 in /  0 mm
00:22 24.9 °F /  -3.9 °C 18.6 °F /  -7.4 °C 1018.2 in /  34476.3 hPa SW 4.8 mph /  7.7 km/h 8.0 mph /  12.9 km/h 68 % 0.0 in /  0 mm
00:32 24.6 °F /  -4.1 °C 18.8 °F /  -7.3 °C 1018.5 in /  34486.4 hPa SW 8.0 mph /  12.9 km/h 8.0 mph /  12.9 km/h 70 % 0.0 in /  0 mm
00:42 24.7 °F /  -4.1 °C 18.9 °F /  -7.3 °C 1018.5 in /  34486.4 hPa SW 6.4 mph /  10.3 km/h 9.7 mph /  15.6 km/h 70 % 0.0 in /  0 mm
00:47 24.9 °F /  -3.9 °C 19.0 °F /  -7.2 °C 1018.5 in /  34486.4 hPa SW 8.0 mph /  12.9 km/h 12.9 mph /  20.8 km/h 70 % 0.0 in /  0 mm
00:52 25.0 °F /  -3.9 °C 19.1 °F /  -7.2 °C 1018.5 in /  34486.4 hPa WSW 6.4 mph /  10.3 km/h 12.9 mph /  20.8 km/h 70 % 0.0 in /  0 mm
00:57 25.2 °F /  -3.8 °C 19.3 °F /  -7.1 °C 1018.2 in /  34476.3 hPa WSW 8.0 mph /  12.9 km/h 12.9 mph /  20.8 km/h 70 % 0.0 in /  0 mm
01:02 25.3 °F /  -3.7 °C 19.4 °F /  -7 °C 1018.2 in /  34476.3 hPa West 4.8 mph /  7.7 km/h 16.1 mph /  25.9 km/h 70 % 0.0 in /  0 mm
01:07 25.3 °F /  -3.7 °C 19.4 °F /  -7 °C 1018.5 in /  34486.4 hPa WSW 6.4 mph /  10.3 km/h 16.1 mph /  25.9 km/h 70 % 0.0 in /  0 mm
01:12 25.3 °F /  -3.7 °C 19.4 °F /  -7 °C 1018.5 in /  34486.4 hPa West 6.4 mph /  10.3 km/h 16.1 mph /  25.9 km/h 70 % 0.0 in /  0 mm
01:17 25.3 °F /  -3.7 °C 19.4 °F /  -7 °C 1018.2 in /  34476.3 hPa WSW 3.2 mph /  5.1 km/h 16.1 mph /  25.9 km/h 70 % 0.0 in /  0 mm
01:22 25.3 °F /  -3.7 °C 19.4 °F /  -7 °C 1018.2 in /  34476.3 hPa SW 8.0 mph /  12.9 km/h 12.9 mph /  20.8 km/h 70 % 0.0 in /  0 mm
01:27 25.2 °F /  -3.8 °C 19.3 °F /  -7.1 °C 1018.2 in /  34476.3 hPa WNW 6.4 mph /  10.3 km/h 12.9 mph /  20.8 km/h 70 % 0.0 in /  0 mm
01:32 25.1 °F /  -3.8 °C 19.5 °F /  -6.9 °C 1018.2 in /  34476.3 hPa WSW 4.8 mph /  7.7 km/h 12.9 mph /  20.8 km/h 71 % 0.0 in /  0 mm
01:37 24.9 °F /  -3.9 °C 19.3 °F /  -7.1 °C 1018.2 in /  34476.3 hPa West 3.2 mph /  5.1 km/h 12.9 mph /  20.8 km/h 71 % 0.0 in /  0 mm
01:42 24.8 °F /  -4 °C 19.4 °F /  -7 °C 1018.2 in /  34476.3 hPa West 3.2 mph /  5.1 km/h 9.7 mph /  15.6 km/h 72 % 0.0 in /  0 mm
01:47 24.7 °F /  -4.1 °C 19.3 °F /  -7.1 °C 1018.2 in /  34476.3 hPa WNW 1.6 mph /  2.6 km/h 6.4 mph /  10.3 km/h 72 % 0.0 in /  0 mm
01:52 24.6 °F /  -4.1 °C 19.4 °F /  -7 °C 1018.5 in /  34486.4 hPa WSW 1.6 mph /  2.6 km/h 4.8 mph /  7.7 km/h 73 % 0.0 in /  0 mm
01:57 24.6 °F /  -4.1 °C 19.4 °F /  -7 °C 1018.5 in /  34486.4 hPa SW 1.6 mph /  2.6 km/h 4.8 mph /  7.7 km/h 73 % 0.0 in /  0 mm
02:02 24.5 °F /  -4.2 °C 19.3 °F /  -7.1 °C 1018.5 in /  34486.4 hPa SW 4.8 mph /  7.7 km/h 4.8 mph /  7.7 km/h 73 % 0.0 in /  0 mm
02:12 24.4 °F /  -4.2 °C 19.5 °F /  -6.9 °C 1018.5 in /  34486.4 hPa Calm   6.4 mph /  10.3 km/h 74 % 0.0 in /  0 mm
02:17 24.4 °F /  -4.2 °C 19.5 °F /  -6.9 °C 1018.5 in /  34486.4 hPa Calm   6.4 mph /  10.3 km/h 74 % 0.0 in /  0 mm
02:22 24.4 °F /  -4.2 °C 19.5 °F /  -6.9 °C 1018.2 in /  34476.3 hPa Calm   6.4 mph /  10.3 km/h 74 % 0.0 in /  0 mm
02:27 24.3 °F /  -4.3 °C 19.4 °F /  -7 °C 1018.2 in /  34476.3 hPa Calm   4.8 mph /  7.7 km/h 74 % 0.0 in /  0 mm
02:32 24.2 °F /  -4.3 °C 19.3 °F /  -7.1 °C 1018.5 in /  34486.4 hPa Calm   3.2 mph /  5.1 km/h 74 % 0.0 in /  0 mm
02:42 24.1 °F /  -4.4 °C 19.4 °F /  -7 °C 1018.8 in /  34496.6 hPa WSW 3.2 mph /  5.1 km/h 3.2 mph /  5.1 km/h 75 % 0.0 in /  0 mm
02:47 24.0 °F /  -4.4 °C 19.5 °F /  -6.9 °C 1018.8 in /  34496.6 hPa Calm   3.2 mph /  5.1 km/h 76 % 0.0 in /  0 mm
02:52 23.9 °F /  -4.5 °C 19.4 °F /  -7 °C 1018.8 in /  34496.6 hPa WSW 1.6 mph /  2.6 km/h 3.2 mph /  5.1 km/h 76 % 0.0 in /  0 mm
02:57 23.8 °F /  -4.6 °C 19.3 °F /  -7.1 °C 1018.8 in /  34496.6 hPa Calm   6.4 mph /  10.3 km/h 76 % 0.0 in /  0 mm
03:02 23.7 °F /  -4.6 °C 19.4 °F /  -7 °C 1018.8 in /  34496.6 hPa Calm   6.4 mph /  10.3 km/h 77 % 0.0 in /  0 mm
03:07 23.7 °F /  -4.6 °C 19.4 °F /  -7 °C 1018.5 in /  34486.4 hPa Calm   6.4 mph /  10.3 km/h 77 % 0.0 in /  0 mm
03:12 23.7 °F /  -4.6 °C 19.4 °F /  -7 °C 1018.5 in /  34486.4 hPa Calm     77 % 0.0 in /  0 mm
03:17 23.7 °F /  -4.6 °C 19.4 °F /  -7 °C 1018.5 in /  34486.4 hPa Calm     77 % 0.0 in /  0 mm
03:22 23.6 °F /  -4.7 °C 19.3 °F /  -7.1 °C 1018.5 in /  34486.4 hPa Calm     77 % 0.0 in /  0 mm
03:27 23.6 °F /  -4.7 °C 19.5 °F /  -6.9 °C 1018.8 in /  34496.6 hPa West 1.6 mph /  2.6 km/h   78 % 0.0 in /  0 mm
03:32 23.4 °F /  -4.8 °C 19.3 °F /  -7.1 °C 1018.8 in /  34496.6 hPa Calm   4.8 mph /  7.7 km/h 78 % 0.0 in /  0 mm
03:37 23.4 °F /  -4.8 °C 19.5 °F /  -6.9 °C 1018.8 in /  34496.6 hPa SW 1.6 mph /  2.6 km/h 4.8 mph /  7.7 km/h 79 % 0.0 in /  0 mm
03:42 23.4 °F /  -4.8 °C 19.5 °F /  -6.9 °C 1018.5 in /  34486.4 hPa Calm   4.8 mph /  7.7 km/h 79 % 0.0 in /  0 mm
03:47 23.3 °F /  -4.8 °C 19.5 °F /  -6.9 °C 1018.5 in /  34486.4 hPa Calm   4.8 mph /  7.7 km/h 79 % 0.0 in /  0 mm
03:52 23.2 °F /  -4.9 °C 19.4 °F /  -7 °C 1018.5 in /  34486.4 hPa Calm   4.8 mph /  7.7 km/h 79 % 0.0 in /  0 mm
03:57 23.1 °F /  -4.9 °C 19.3 °F /  -7.1 °C 1018.5 in /  34486.4 hPa Calm   3.2 mph /  5.1 km/h 79 % 0.0 in /  0 mm
04:02 22.9 °F /  -5.1 °C 19.3 °F /  -7.1 °C 1018.5 in /  34486.4 hPa SSW 1.6 mph /  2.6 km/h 1.6 mph /  2.6 km/h 80 % 0.0 in /  0 mm
04:07 22.8 °F /  -5.1 °C 19.2 °F /  -7.1 °C 1018.5 in /  34486.4 hPa Calm   4.8 mph /  7.7 km/h 80 % 0.0 in /  0 mm
04:12 22.8 °F /  -5.1 °C 19.4 °F /  -7 °C 1018.5 in /  34486.4 hPa Calm   4.8 mph /  7.7 km/h 81 % 0.0 in /  0 mm
04:17 22.6 °F /  -5.2 °C 19.2 °F /  -7.1 °C 1018.5 in /  34486.4 hPa Calm   4.8 mph /  7.7 km/h 81 % 0.0 in /  0 mm
04:22 22.4 °F /  -5.3 °C 19.2 °F /  -7.1 °C 1018.5 in /  34486.4 hPa Calm   1.6 mph /  2.6 km/h 82 % 0.0 in /  0 mm
04:32 22.0 °F /  -5.6 °C 19.2 °F /  -7.1 °C 1018.5 in /  34486.4 hPa Calm   1.6 mph /  2.6 km/h 84 % 0.0 in /  0 mm
04:37 21.8 °F /  -5.7 °C 19.2 °F /  -7.1 °C 1018.5 in /  34486.4 hPa Calm   1.6 mph /  2.6 km/h 85 % 0.0 in /  0 mm
04:42 21.8 °F /  -5.7 °C 19.2 °F /  -7.1 °C 1018.5 in /  34486.4 hPa Calm   1.6 mph /  2.6 km/h 85 % 0.0 in /  0 mm
04:47 21.7 °F /  -5.7 °C 19.1 °F /  -7.2 °C 1018.8 in /  34496.6 hPa Calm   1.6 mph /  2.6 km/h 85 % 0.0 in /  0 mm
04:52 21.8 °F /  -5.7 °C 19.4 °F /  -7 °C 1018.8 in /  34496.6 hPa Calm     86 % 0.0 in /  0 mm
04:57 21.7 °F /  -5.7 °C 19.1 °F /  -7.2 °C 1018.8 in /  34496.6 hPa Calm     85 % 0.0 in /  0 mm
05:02 21.6 °F /  -5.8 °C 19.2 °F /  -7.1 °C 1018.5 in /  34486.4 hPa Calm     86 % 0.0 in /  0 mm
05:07 21.4 °F /  -5.9 °C 19.0 °F /  -7.2 °C 1018.8 in /  34496.6 hPa Calm     86 % 0.0 in /  0 mm
05:12 21.3 °F /  -5.9 °C 18.9 °F /  -7.3 °C 1018.8 in /  34496.6 hPa Calm     86 % 0.0 in /  0 mm
05:17 21.2 °F /  -6 °C 18.9 °F /  -7.3 °C 1018.8 in /  34496.6 hPa Calm     87 % 0.0 in /  0 mm
05:22 21.2 °F /  -6 °C 18.9 °F /  -7.3 °C 1018.8 in /  34496.6 hPa Calm     87 % 0.0 in /  0 mm
05:27 21.2 °F /  -6 °C 18.9 °F /  -7.3 °C 1018.5 in /  34486.4 hPa Calm     87 % 0.0 in /  0 mm
05:32 21.1 °F /  -6.1 °C 19.0 °F /  -7.2 °C 1018.8 in /  34496.6 hPa Calm     88 % 0.0 in /  0 mm
05:37 21.0 °F /  -6.1 °C 18.9 °F /  -7.3 °C 1018.8 in /  34496.6 hPa Calm     88 % 0.0 in /  0 mm
05:42 20.9 °F /  -6.2 °C 18.8 °F /  -7.3 °C 1018.5 in /  34486.4 hPa Calm     88 % 0.0 in /  0 mm
05:47 20.9 °F /  -6.2 °C 18.8 °F /  -7.3 °C 1018.5 in /  34486.4 hPa Calm     88 % 0.0 in /  0 mm
05:52 20.7 °F /  -6.3 °C 18.6 °F /  -7.4 °C 1018.5 in /  34486.4 hPa Calm     88 % 0.0 in /  0 mm
05:57 20.6 °F /  -6.3 °C 18.5 °F /  -7.5 °C 1018.5 in /  34486.4 hPa Calm     88 % 0.0 in /  0 mm
06:02 20.4 °F /  -6.4 °C 18.5 °F /  -7.5 °C 1018.8 in /  34496.6 hPa Calm     89 % 0.0 in /  0 mm
06:07 20.3 °F /  -6.5 °C 18.4 °F /  -7.6 °C 1018.5 in /  34486.4 hPa Calm     89 % 0.0 in /  0 mm
06:12 20.3 °F /  -6.5 °C 18.6 °F /  -7.4 °C 1018.8 in /  34496.6 hPa Calm     90 % 0.0 in /  0 mm
06:17 20.2 °F /  -6.6 °C 18.5 °F /  -7.5 °C 1018.8 in /  34496.6 hPa Calm     90 % 0.0 in /  0 mm
06:22 20.1 °F /  -6.6 °C 18.4 °F /  -7.6 °C 1018.8 in /  34496.6 hPa Calm     90 % 0.0 in /  0 mm
06:27 20.0 °F /  -6.7 °C 18.3 °F /  -7.6 °C 1018.8 in /  34496.6 hPa Calm     90 % 0.0 in /  0 mm
06:32 19.9 °F /  -6.7 °C 18.4 °F /  -7.6 °C 1018.8 in /  34496.6 hPa Calm     91 % 0.0 in /  0 mm
06:42 19.7 °F /  -6.8 °C 18.2 °F /  -7.7 °C 1019.2 in /  34510.1 hPa Calm   1.6 mph /  2.6 km/h 91 % 0.0 in /  0 mm
06:47 19.6 °F /  -6.9 °C 18.1 °F /  -7.7 °C 1019.2 in /  34510.1 hPa Calm   1.6 mph /  2.6 km/h 91 % 0.0 in /  0 mm
06:52 19.6 °F /  -6.9 °C 18.1 °F /  -7.7 °C 1019.2 in /  34510.1 hPa Calm   1.6 mph /  2.6 km/h 91 % 0.0 in /  0 mm
06:57 19.7 °F /  -6.8 °C 18.4 °F /  -7.6 °C 1019.2 in /  34510.1 hPa Calm   3.2 mph /  5.1 km/h 92 % 0.0 in /  0 mm
07:02 19.8 °F /  -6.8 °C 18.3 °F /  -7.6 °C 1019.2 in /  34510.1 hPa SSW 1.6 mph /  2.6 km/h 3.2 mph /  5.1 km/h 91 % 0.0 in /  0 mm
07:07 19.8 °F /  -6.8 °C 18.3 °F /  -7.6 °C 1019.2 in /  34510.1 hPa Calm   4.8 mph /  7.7 km/h 91 % 0.0 in /  0 mm
07:12 19.8 °F /  -6.8 °C 18.3 °F /  -7.6 °C 1019.2 in /  34510.1 hPa Calm   4.8 mph /  7.7 km/h 91 % 0.0 in /  0 mm
07:17 20.0 °F /  -6.7 °C 18.5 °F /  -7.5 °C 1019.2 in /  34510.1 hPa Calm   4.8 mph /  7.7 km/h 91 % 0.0 in /  0 mm
07:22 20.2 °F /  -6.6 °C 18.7 °F /  -7.4 °C 1019.2 in /  34510.1 hPa SSW 1.6 mph /  2.6 km/h 4.8 mph /  7.7 km/h 91 % 0.0 in /  0 mm
07:27 20.3 °F /  -6.5 °C 18.8 °F /  -7.3 °C 1019.2 in /  34510.1 hPa SSW 3.2 mph /  5.1 km/h 3.2 mph /  5.1 km/h 91 % 0.0 in /  0 mm
07:32 20.6 °F /  -6.3 °C 19.1 °F /  -7.2 °C 1019.2 in /  34510.1 hPa SSW 3.2 mph /  5.1 km/h 4.8 mph /  7.7 km/h 91 % 0.0 in /  0 mm
07:42 21.1 °F /  -6.1 °C 19.4 °F /  -7 °C 1019.2 in /  34510.1 hPa SSW 3.2 mph /  5.1 km/h 6.4 mph /  10.3 km/h 90 % 0.0 in /  0 mm
07:47 21.3 °F /  -5.9 °C 19.6 °F /  -6.9 °C 1019.2 in /  34510.1 hPa SSW 3.2 mph /  5.1 km/h 6.4 mph /  10.3 km/h 90 % 0.0 in /  0 mm
07:52 21.6 °F /  -5.8 °C 19.7 °F /  -6.8 °C 1019.2 in /  34510.1 hPa SW 1.6 mph /  2.6 km/h 6.4 mph /  10.3 km/h 89 % 0.0 in /  0 mm
07:57 21.8 °F /  -5.7 °C 19.9 °F /  -6.7 °C 1019.2 in /  34510.1 hPa Calm   6.4 mph /  10.3 km/h 89 % 0.0 in /  0 mm
08:02 22.0 °F /  -5.6 °C 19.7 °F /  -6.8 °C 1019.5 in /  34520.3 hPa SW 3.2 mph /  5.1 km/h 6.4 mph /  10.3 km/h 87 % 0.0 in /  0 mm
08:12 22.5 °F /  -5.3 °C 20.0 °F /  -6.7 °C 1019.5 in /  34520.3 hPa South 1.6 mph /  2.6 km/h 4.8 mph /  7.7 km/h 86 % 0.0 in /  0 mm
08:17 22.7 °F /  -5.2 °C 20.0 °F /  -6.7 °C 1019.5 in /  34520.3 hPa SW 4.8 mph /  7.7 km/h 4.8 mph /  7.7 km/h 85 % 0.0 in /  0 mm
08:27 23.1 °F /  -4.9 °C 20.1 °F /  -6.6 °C 1019.5 in /  34520.3 hPa Calm   6.4 mph /  10.3 km/h 83 % 0.0 in /  0 mm
08:32 23.3 °F /  -4.8 °C 20.1 °F /  -6.6 °C 1019.5 in /  34520.3 hPa SW 3.2 mph /  5.1 km/h 6.4 mph /  10.3 km/h 82 % 0.0 in /  0 mm
08:37 23.3 °F /  -4.8 °C 20.1 °F /  -6.6 °C 1019.5 in /  34520.3 hPa SSW 3.2 mph /  5.1 km/h 8.0 mph /  12.9 km/h 82 % 0.0 in /  0 mm
08:42 23.3 °F /  -4.8 °C 20.1 °F /  -6.6 °C 1019.5 in /  34520.3 hPa South 3.2 mph /  5.1 km/h 8.0 mph /  12.9 km/h 82 % 0.0 in /  0 mm
08:47 23.4 °F /  -4.8 °C 20.3 °F /  -6.5 °C 1019.5 in /  34520.3 hPa SW 3.2 mph /  5.1 km/h 8.0 mph /  12.9 km/h 83 % 0.0 in /  0 mm
08:52 23.5 °F /  -4.7 °C 20.2 °F /  -6.6 °C 1019.5 in /  34520.3 hPa SSW 1.6 mph /  2.6 km/h 8.0 mph /  12.9 km/h 82 % 0.0 in /  0 mm
08:57 23.6 °F /  -4.7 °C 20.3 °F /  -6.5 °C 1019.5 in /  34520.3 hPa SW 4.8 mph /  7.7 km/h 8.0 mph /  12.9 km/h 82 % 0.0 in /  0 mm
09:02 23.8 °F /  -4.6 °C 20.5 °F /  -6.4 °C 1019.5 in /  34520.3 hPa SW 1.6 mph /  2.6 km/h 6.4 mph /  10.3 km/h 82 % 0.0 in /  0 mm
09:07 24.1 °F /  -4.4 °C 20.6 °F /  -6.3 °C 1019.5 in /  34520.3 hPa SW 8.0 mph /  12.9 km/h 8.0 mph /  12.9 km/h 81 % 0.0 in /  0 mm
09:12 24.1 °F /  -4.4 °C 20.6 °F /  -6.3 °C 1019.5 in /  34520.3 hPa SSW 6.4 mph /  10.3 km/h 11.3 mph /  18.2 km/h 81 % 0.0 in /  0 mm
09:17 24.3 °F /  -4.3 °C 20.8 °F /  -6.2 °C 1019.5 in /  34520.3 hPa SW 4.8 mph /  7.7 km/h 11.3 mph /  18.2 km/h 81 % 0.0 in /  0 mm
09:22 24.2 °F /  -4.3 °C 20.5 °F /  -6.4 °C 1019.5 in /  34520.3 hPa SW 11.3 mph /  18.2 km/h 14.5 mph /  23.3 km/h 80 % 0.0 in /  0 mm
09:27 24.1 °F /  -4.4 °C 20.4 °F /  -6.4 °C 1019.9 in /  34533.8 hPa SW 11.3 mph /  18.2 km/h 14.5 mph /  23.3 km/h 80 % 0.0 in /  0 mm
09:32 24.0 °F /  -4.4 °C 20.5 °F /  -6.4 °C 1019.9 in /  34533.8 hPa SW 9.7 mph /  15.6 km/h 16.1 mph /  25.9 km/h 81 % 0.0 in /  0 mm
09:37 23.9 °F /  -4.5 °C 20.4 °F /  -6.4 °C 1019.9 in /  34533.8 hPa SSW 4.8 mph /  7.7 km/h 16.1 mph /  25.9 km/h 81 % 0.0 in /  0 mm
09:42 23.9 °F /  -4.5 °C 20.4 °F /  -6.4 °C 1019.9 in /  34533.8 hPa South 4.8 mph /  7.7 km/h 16.1 mph /  25.9 km/h 81 % 0.0 in /  0 mm
09:47 24.0 °F /  -4.4 °C 20.5 °F /  -6.4 °C 1019.9 in /  34533.8 hPa SW 8.0 mph /  12.9 km/h 14.5 mph /  23.3 km/h 81 % 0.0 in /  0 mm
09:52 24.1 °F /  -4.4 °C 20.6 °F /  -6.3 °C 1019.9 in /  34533.8 hPa SW 4.8 mph /  7.7 km/h 12.9 mph /  20.8 km/h 81 % 0.0 in /  0 mm
09:57 24.3 °F /  -4.3 °C 20.6 °F /  -6.3 °C 1019.9 in /  34533.8 hPa WSW 8.0 mph /  12.9 km/h 12.9 mph /  20.8 km/h 80 % 0.0 in /  0 mm
10:02 24.6 °F /  -4.1 °C 20.9 °F /  -6.2 °C 1019.9 in /  34533.8 hPa SSW 8.0 mph /  12.9 km/h 12.9 mph /  20.8 km/h 80 % 0.0 in /  0 mm
10:07 24.9 °F /  -3.9 °C 21.0 °F /  -6.1 °C 1019.9 in /  34533.8 hPa West 1.6 mph /  2.6 km/h 12.9 mph /  20.8 km/h 79 % 0.0 in /  0 mm
10:12 24.9 °F /  -3.9 °C 20.6 °F /  -6.3 °C 1019.9 in /  34533.8 hPa West 9.7 mph /  15.6 km/h 12.9 mph /  20.8 km/h 77 % 0.0 in /  0 mm
10:17 24.8 °F /  -4 °C 20.7 °F /  -6.3 °C 1019.9 in /  34533.8 hPa SSW 6.4 mph /  10.3 km/h 17.7 mph /  28.5 km/h 78 % 0.0 in /  0 mm
10:22 24.8 °F /  -4 °C 20.7 °F /  -6.3 °C 1019.9 in /  34533.8 hPa SW 9.7 mph /  15.6 km/h 17.7 mph /  28.5 km/h 78 % 0.0 in /  0 mm
10:27 24.9 °F /  -3.9 °C 20.6 °F /  -6.3 °C 1019.9 in /  34533.8 hPa SW 9.7 mph /  15.6 km/h 17.7 mph /  28.5 km/h 77 % 0.0 in /  0 mm
10:32 24.9 °F /  -3.9 °C 20.6 °F /  -6.3 °C 1019.9 in /  34533.8 hPa WSW 9.7 mph /  15.6 km/h 16.1 mph /  25.9 km/h 77 % 0.0 in /  0 mm
10:42 24.9 °F /  -3.9 °C 20.8 °F /  -6.2 °C 1019.9 in /  34533.8 hPa WSW 6.4 mph /  10.3 km/h 17.7 mph /  28.5 km/h 78 % 0.0 in /  0 mm
10:52 25.3 °F /  -3.7 °C 21.0 °F /  -6.1 °C 1019.5 in /  34520.3 hPa SW 8.0 mph /  12.9 km/h 17.7 mph /  28.5 km/h 77 % 0.0 in /  0 mm
10:57 25.7 °F /  -3.5 °C 21.1 °F /  -6.1 °C 1019.5 in /  34520.3 hPa West 6.4 mph /  10.3 km/h 17.7 mph /  28.5 km/h 76 % 0.0 in /  0 mm
11:07 25.9 °F /  -3.4 °C 21.1 °F /  -6.1 °C 1019.5 in /  34520.3 hPa West 4.8 mph /  7.7 km/h 17.7 mph /  28.5 km/h 75 % 0.0 in /  0 mm
11:12 26.1 °F /  -3.3 °C 21.1 °F /  -6.1 °C 1019.9 in /  34533.8 hPa West 4.8 mph /  7.7 km/h 17.7 mph /  28.5 km/h 74 % 0.0 in /  0 mm
11:17 26.2 °F /  -3.2 °C 21.0 °F /  -6.1 °C 1019.9 in /  34533.8 hPa WNW 4.8 mph /  7.7 km/h 14.5 mph /  23.3 km/h 73 % 0.0 in /  0 mm
11:22 26.2 °F /  -3.2 °C 21.0 °F /  -6.1 °C 1019.9 in /  34533.8 hPa West 3.2 mph /  5.1 km/h 14.5 mph /  23.3 km/h 73 % 0.0 in /  0 mm
11:27 26.2 °F /  -3.2 °C 21.0 °F /  -6.1 °C 1019.9 in /  34533.8 hPa West 9.7 mph /  15.6 km/h 14.5 mph /  23.3 km/h 73 % 0.0 in /  0 mm
11:32 26.3 °F /  -3.2 °C 21.1 °F /  -6.1 °C 1019.9 in /  34533.8 hPa West 8.0 mph /  12.9 km/h 14.5 mph /  23.3 km/h 73 % 0.0 in /  0 mm
11:37 26.4 °F /  -3.1 °C 20.9 °F /  -6.2 °C 1019.9 in /  34533.8 hPa West 4.8 mph /  7.7 km/h 14.5 mph /  23.3 km/h 72 % 0.0 in /  0 mm
11:42 26.6 °F /  -3 °C 21.1 °F /  -6.1 °C 1019.9 in /  34533.8 hPa West 4.8 mph /  7.7 km/h 14.5 mph /  23.3 km/h 72 % 0.0 in /  0 mm
11:47 26.8 °F /  -2.9 °C 21.1 °F /  -6.1 °C 1019.9 in /  34533.8 hPa SW 9.7 mph /  15.6 km/h 14.5 mph /  23.3 km/h 71 % 0.0 in /  0 mm
11:52 26.9 °F /  -2.8 °C 21.0 °F /  -6.1 °C 1019.9 in /  34533.8 hPa SSW 4.8 mph /  7.7 km/h 14.5 mph /  23.3 km/h 70 % 0.0 in /  0 mm
11:57 27.1 °F /  -2.7 °C 21.4 °F /  -5.9 °C 1019.9 in /  34533.8 hPa West 4.8 mph /  7.7 km/h 14.5 mph /  23.3 km/h 71 % 0.0 in /  0 mm
12:02 27.1 °F /  -2.7 °C 20.9 °F /  -6.2 °C 1019.9 in /  34533.8 hPa WSW 12.9 mph /  20.8 km/h 14.5 mph /  23.3 km/h 69 % 0.0 in /  0 mm
12:12 27.3 °F /  -2.6 °C 21.1 °F /  -6.1 °C 1019.9 in /  34533.8 hPa West 8.0 mph /  12.9 km/h 19.3 mph /  31.1 km/h 69 % 0.0 in /  0 mm
12:17 27.1 °F /  -2.7 °C 21.2 °F /  -6 °C 1019.9 in /  34533.8 hPa West 4.8 mph /  7.7 km/h 17.7 mph /  28.5 km/h 70 % 0.0 in /  0 mm
12:22 27.1 °F /  -2.7 °C 21.2 °F /  -6 °C 1019.9 in /  34533.8 hPa West 3.2 mph /  5.1 km/h 17.7 mph /  28.5 km/h 70 % 0.0 in /  0 mm
12:27 27.2 °F /  -2.7 °C 21.0 °F /  -6.1 °C 1019.9 in /  34533.8 hPa West 4.8 mph /  7.7 km/h 14.5 mph /  23.3 km/h 69 % 0.0 in /  0 mm
12:32 27.2 °F /  -2.7 °C 21.0 °F /  -6.1 °C 1019.9 in /  34533.8 hPa WSW 9.7 mph /  15.6 km/h 14.5 mph /  23.3 km/h 69 % 0.0 in /  0 mm
12:42 27.7 °F /  -2.4 °C 21.5 °F /  -5.8 °C 1019.9 in /  34533.8 hPa WNW 8.0 mph /  12.9 km/h 16.1 mph /  25.9 km/h 69 % 0.0 in /  0 mm
12:47 27.9 °F /  -2.3 °C 21.2 °F /  -6 °C 1019.9 in /  34533.8 hPa South 6.4 mph /  10.3 km/h 16.1 mph /  25.9 km/h 67 % 0.0 in /  0 mm
12:52 28.0 °F /  -2.2 °C 21.1 °F /  -6.1 °C 1019.9 in /  34533.8 hPa WNW 6.4 mph /  10.3 km/h 14.5 mph /  23.3 km/h 66 % 0.0 in /  0 mm
12:57 28.2 °F /  -2.1 °C 21.2 °F /  -6 °C 1019.9 in /  34533.8 hPa West 3.2 mph /  5.1 km/h 14.5 mph /  23.3 km/h 66 % 0.0 in /  0 mm
13:02 28.3 °F /  -2.1 °C 21.1 °F /  -6.1 °C 1019.9 in /  34533.8 hPa WSW 3.2 mph /  5.1 km/h 14.5 mph /  23.3 km/h 65 % 0.0 in /  0 mm
13:07 28.3 °F /  -2.1 °C 21.1 °F /  -6.1 °C 1019.9 in /  34533.8 hPa NW 3.2 mph /  5.1 km/h 14.5 mph /  23.3 km/h 65 % 0.0 in /  0 mm
13:12 28.2 °F /  -2.1 °C 21.2 °F /  -6 °C 1019.9 in /  34533.8 hPa WNW 4.8 mph /  7.7 km/h 12.9 mph /  20.8 km/h 66 % 0.0 in /  0 mm
13:17 28.2 °F /  -2.1 °C 21.2 °F /  -6 °C 1019.5 in /  34520.3 hPa West 9.7 mph /  15.6 km/h 14.5 mph /  23.3 km/h 66 % 0.0 in /  0 mm
13:22 28.5 °F /  -1.9 °C 21.3 °F /  -5.9 °C 1019.5 in /  34520.3 hPa SW 3.2 mph /  5.1 km/h 14.5 mph /  23.3 km/h 65 % 0.0 in /  0 mm
13:27 28.9 °F /  -1.7 °C 21.1 °F /  -6.1 °C 1019.5 in /  34520.3 hPa WNW 8.0 mph /  12.9 km/h 16.1 mph /  25.9 km/h 63 % 0.0 in /  0 mm
13:32 28.9 °F /  -1.7 °C 20.6 °F /  -6.3 °C 1019.5 in /  34520.3 hPa West 9.7 mph /  15.6 km/h 16.1 mph /  25.9 km/h 61 % 0.0 in /  0 mm
13:37 28.9 °F /  -1.7 °C 20.6 °F /  -6.3 °C 1019.5 in /  34520.3 hPa WSW 1.6 mph /  2.6 km/h 16.1 mph /  25.9 km/h 61 % 0.0 in /  0 mm
13:42 29.2 °F /  -1.6 °C 20.4 °F /  -6.4 °C 1019.5 in /  34520.3 hPa SSW 8.0 mph /  12.9 km/h 14.5 mph /  23.3 km/h 59 % 0.0 in /  0 mm
13:52 29.6 °F /  -1.3 °C 20.5 °F /  -6.4 °C 1019.5 in /  34520.3 hPa WNW 3.2 mph /  5.1 km/h 16.1 mph /  25.9 km/h 58 % 0.0 in /  0 mm
13:57 29.8 °F /  -1.2 °C 20.4 °F /  -6.4 °C 1019.5 in /  34520.3 hPa WSW 8.0 mph /  12.9 km/h 19.3 mph /  31.1 km/h 57 % 0.0 in /  0 mm
14:02 30.2 °F /  -1 °C 21.0 °F /  -6.1 °C 1019.2 in /  34510.1 hPa East 1.6 mph /  2.6 km/h 19.3 mph /  31.1 km/h 58 % 0.0 in /  0 mm
14:07 30.3 °F /  -0.9 °C 21.4 °F /  -5.9 °C 1019.2 in /  34510.1 hPa SSW 9.7 mph /  15.6 km/h 19.3 mph /  31.1 km/h 59 % 0.0 in /  0 mm
14:12 30.2 °F /  -1 °C 21.0 °F /  -6.1 °C 1019.2 in /  34510.1 hPa NNW 6.4 mph /  10.3 km/h 17.7 mph /  28.5 km/h 58 % 0.0 in /  0 mm
14:17 30.2 °F /  -1 °C 20.2 °F /  -6.6 °C 1019.2 in /  34510.1 hPa SSW 9.7 mph /  15.6 km/h 17.7 mph /  28.5 km/h 55 % 0.0 in /  0 mm
14:22 30.2 °F /  -1 °C 20.7 °F /  -6.3 °C 1019.2 in /  34510.1 hPa West 8.0 mph /  12.9 km/h 17.7 mph /  28.5 km/h 57 % 0.0 in /  0 mm
14:27 30.2 °F /  -1 °C 20.4 °F /  -6.4 °C 1019.2 in /  34510.1 hPa WSW 6.4 mph /  10.3 km/h 17.7 mph /  28.5 km/h 56 % 0.0 in /  0 mm
14:32 30.2 °F /  -1 °C 20.7 °F /  -6.3 °C 1019.2 in /  34510.1 hPa SSW 12.9 mph /  20.8 km/h 12.9 mph /  20.8 km/h 57 % 0.0 in /  0 mm
14:37 30.3 °F /  -0.9 °C 20.8 °F /  -6.2 °C 1019.2 in /  34510.1 hPa WSW 4.8 mph /  7.7 km/h 27.4 mph /  44.1 km/h 57 % 0.0 in /  0 mm
14:42 30.4 °F /  -0.9 °C 20.6 °F /  -6.3 °C 1019.2 in /  34510.1 hPa ESE 12.9 mph /  20.8 km/h 27.4 mph /  44.1 km/h 56 % 0.0 in /  0 mm
14:47 30.5 °F /  -0.8 °C 20.4 °F /  -6.4 °C 1019.2 in /  34510.1 hPa WSW 11.3 mph /  18.2 km/h 27.4 mph /  44.1 km/h 55 % 0.0 in /  0 mm
14:52 30.7 °F /  -0.7 °C 20.3 °F /  -6.5 °C 1018.8 in /  34496.6 hPa South 8.0 mph /  12.9 km/h 17.7 mph /  28.5 km/h 54 % 0.0 in /  0 mm
14:57 30.7 °F /  -0.7 °C 20.6 °F /  -6.3 °C 1018.8 in /  34496.6 hPa West 8.0 mph /  12.9 km/h 17.7 mph /  28.5 km/h 55 % 0.0 in /  0 mm
15:02 30.8 °F /  -0.7 °C 20.1 °F /  -6.6 °C 1018.8 in /  34496.6 hPa WSW 11.3 mph /  18.2 km/h 16.1 mph /  25.9 km/h 53 % 0.0 in /  0 mm
15:12 30.6 °F /  -0.8 °C 19.3 °F /  -7.1 °C 1018.8 in /  34496.6 hPa WNW 9.7 mph /  15.6 km/h 22.5 mph /  36.2 km/h 51 % 0.0 in /  0 mm
15:17 30.8 °F /  -0.7 °C 19.5 °F /  -6.9 °C 1018.8 in /  34496.6 hPa WNW 6.4 mph /  10.3 km/h 22.5 mph /  36.2 km/h 51 % 0.0 in /  0 mm
15:22 30.8 °F /  -0.7 °C 19.5 °F /  -6.9 °C 1018.8 in /  34496.6 hPa NW 3.2 mph /  5.1 km/h 24.1 mph /  38.8 km/h 51 % 0.0 in /  0 mm
15:27 30.9 °F /  -0.6 °C 19.9 °F /  -6.7 °C 1018.8 in /  34496.6 hPa West 12.9 mph /  20.8 km/h 24.1 mph /  38.8 km/h 52 % 0.0 in /  0 mm
15:32 30.8 °F /  -0.7 °C 20.4 °F /  -6.4 °C 1018.8 in /  34496.6 hPa WNW 9.7 mph /  15.6 km/h 24.1 mph /  38.8 km/h 54 % 0.0 in /  0 mm
15:37 31.2 °F /  -0.4 °C 20.2 °F /  -6.6 °C 1018.8 in /  34496.6 hPa West 11.3 mph /  18.2 km/h 17.7 mph /  28.5 km/h 52 % 0.0 in /  0 mm
15:42 30.8 °F /  -0.7 °C 19.5 °F /  -6.9 °C 1018.8 in /  34496.6 hPa SW 1.6 mph /  2.6 km/h 19.3 mph /  31.1 km/h 51 % 0.0 in /  0 mm
15:47 31.1 °F /  -0.5 °C 20.7 °F /  -6.3 °C 1018.8 in /  34496.6 hPa WNW 12.9 mph /  20.8 km/h 19.3 mph /  31.1 km/h 54 % 0.0 in /  0 mm
15:52 31.0 °F /  -0.6 °C 19.7 °F /  -6.8 °C 1018.8 in /  34496.6 hPa West 9.7 mph /  15.6 km/h 24.1 mph /  38.8 km/h 51 % 0.0 in /  0 mm
15:57 31.1 °F /  -0.5 °C 20.1 °F /  -6.6 °C 1018.8 in /  34496.6 hPa West 8.0 mph /  12.9 km/h 24.1 mph /  38.8 km/h 52 % 0.0 in /  0 mm
16:02 31.2 °F /  -0.4 °C 19.9 °F /  -6.7 °C 1018.8 in /  34496.6 hPa SW 12.9 mph /  20.8 km/h 24.1 mph /  38.8 km/h 51 % 0.0 in /  0 mm
16:07 30.8 °F /  -0.7 °C 20.7 °F /  -6.3 °C 1018.8 in /  34496.6 hPa South 8.0 mph /  12.9 km/h 19.3 mph /  31.1 km/h 55 % 0.0 in /  0 mm
16:12 31.1 °F /  -0.5 °C 20.1 °F /  -6.6 °C 1018.5 in /  34486.4 hPa WNW 3.2 mph /  5.1 km/h 16.1 mph /  25.9 km/h 52 % 0.0 in /  0 mm
16:17 31.3 °F /  -0.4 °C 20.3 °F /  -6.5 °C 1018.8 in /  34496.6 hPa WNW 12.9 mph /  20.8 km/h 22.5 mph /  36.2 km/h 52 % 0.0 in /  0 mm
16:22 31.1 °F /  -0.5 °C 20.1 °F /  -6.6 °C 1018.8 in /  34496.6 hPa SW 4.8 mph /  7.7 km/h 22.5 mph /  36.2 km/h 52 % 0.0 in /  0 mm
16:27 31.1 °F /  -0.5 °C 20.4 °F /  -6.4 °C 1018.5 in /  34486.4 hPa WNW 11.3 mph /  18.2 km/h 22.5 mph /  36.2 km/h 53 % 0.0 in /  0 mm
16:32 31.1 °F /  -0.5 °C 20.1 °F /  -6.6 °C 1018.5 in /  34486.4 hPa SSW 9.7 mph /  15.6 km/h 20.9 mph /  33.6 km/h 52 % 0.0 in /  0 mm
16:37 31.3 °F /  -0.4 °C 20.3 °F /  -6.5 °C 1018.5 in /  34486.4 hPa NW 8.0 mph /  12.9 km/h 20.9 mph /  33.6 km/h 52 % 0.0 in /  0 mm
16:42 31.5 °F /  -0.3 °C 20.1 °F /  -6.6 °C 1018.5 in /  34486.4 hPa WSW 8.0 mph /  12.9 km/h 20.9 mph /  33.6 km/h 51 % 0.0 in /  0 mm
16:47 31.5 °F /  -0.3 °C 19.8 °F /  -6.8 °C 1018.5 in /  34486.4 hPa West 11.3 mph /  18.2 km/h 24.1 mph /  38.8 km/h 50 % 0.0 in /  0 mm
16:52 31.2 °F /  -0.4 °C 19.9 °F /  -6.7 °C 1018.5 in /  34486.4 hPa SW 4.8 mph /  7.7 km/h 24.1 mph /  38.8 km/h 51 % 0.0 in /  0 mm
16:57 31.4 °F /  -0.3 °C 19.7 °F /  -6.8 °C 1018.5 in /  34486.4 hPa WSW 8.0 mph /  12.9 km/h 24.1 mph /  38.8 km/h 50 % 0.0 in /  0 mm
17:02 31.6 °F /  -0.2 °C 19.2 °F /  -7.1 °C 1018.5 in /  34486.4 hPa WNW 11.3 mph /  18.2 km/h 20.9 mph /  33.6 km/h 48 % 0.0 in /  0 mm
17:07 31.7 °F /  -0.2 °C 19.0 °F /  -7.2 °C 1018.2 in /  34476.3 hPa WSW 8.0 mph /  12.9 km/h 20.9 mph /  33.6 km/h 47 % 0.0 in /  0 mm
17:12 31.4 °F /  -0.3 °C 19.1 °F /  -7.2 °C 1018.5 in /  34486.4 hPa WSW 8.0 mph /  12.9 km/h 20.9 mph /  33.6 km/h 48 % 0.0 in /  0 mm
17:17 31.3 °F /  -0.4 °C 19.3 °F /  -7.1 °C 1018.2 in /  34476.3 hPa WNW 6.4 mph /  10.3 km/h 20.9 mph /  33.6 km/h 49 % 0.0 in /  0 mm
17:22 31.6 °F /  -0.2 °C 19.2 °F /  -7.1 °C 1018.2 in /  34476.3 hPa SW 8.0 mph /  12.9 km/h 16.1 mph /  25.9 km/h 48 % 0.0 in /  0 mm
17:32 31.7 °F /  -0.2 °C 18.3 °F /  -7.6 °C 1018.2 in /  34476.3 hPa NW 8.0 mph /  12.9 km/h 24.1 mph /  38.8 km/h 45 % 0.0 in /  0 mm
17:37 31.7 °F /  -0.2 °C 18.7 °F /  -7.4 °C 1017.8 in /  34462.7 hPa West 9.7 mph /  15.6 km/h 24.1 mph /  38.8 km/h 46 % 0.0 in /  0 mm
17:42 31.8 °F /  -0.1 °C 18.4 °F /  -7.6 °C 1017.8 in /  34462.7 hPa NW 6.4 mph /  10.3 km/h 24.1 mph /  38.8 km/h 45 % 0.0 in /  0 mm
17:47 31.8 °F /  -0.1 °C 18.7 °F /  -7.4 °C 1017.8 in /  34462.7 hPa WNW 8.0 mph /  12.9 km/h 20.9 mph /  33.6 km/h 46 % 0.0 in /  0 mm
17:52 31.8 °F /  -0.1 °C 18.4 °F /  -7.6 °C 1017.8 in /  34462.7 hPa WNW 11.3 mph /  18.2 km/h 17.7 mph /  28.5 km/h 45 % 0.0 in /  0 mm
17:57 31.7 °F /  -0.2 °C 18.3 °F /  -7.6 °C 1017.8 in /  34462.7 hPa West 12.9 mph /  20.8 km/h 19.3 mph /  31.1 km/h 45 % 0.0 in /  0 mm
18:02 31.6 °F /  -0.2 °C 18.2 °F /  -7.7 °C 1017.8 in /  34462.7 hPa WSW 8.0 mph /  12.9 km/h 22.5 mph /  36.2 km/h 45 % 0.0 in /  0 mm
18:07 31.6 °F /  -0.2 °C 18.2 °F /  -7.7 °C 1017.8 in /  34462.7 hPa WNW 11.3 mph /  18.2 km/h 22.5 mph /  36.2 km/h 45 % 0.0 in /  0 mm
18:12 31.6 °F /  -0.2 °C 18.6 °F /  -7.4 °C 1017.8 in /  34462.7 hPa WSW 4.8 mph /  7.7 km/h 22.5 mph /  36.2 km/h 46 % 0.0 in /  0 mm
18:17 31.9 °F /  -0.1 °C 18.5 °F /  -7.5 °C 1017.8 in /  34462.7 hPa WNW 12.9 mph /  20.8 km/h 22.5 mph /  36.2 km/h 45 % 0.0 in /  0 mm
18:22 31.7 °F /  -0.2 °C 18.3 °F /  -7.6 °C 1017.8 in /  34462.7 hPa WNW 9.7 mph /  15.6 km/h 22.5 mph /  36.2 km/h 45 % 0.0 in /  0 mm
18:32 31.7 °F /  -0.2 °C 19.0 °F /  -7.2 °C 1017.8 in /  34462.7 hPa WSW 9.7 mph /  15.6 km/h 19.3 mph /  31.1 km/h 47 % 0.0 in /  0 mm
18:37 31.7 °F /  -0.2 °C 18.7 °F /  -7.4 °C 1017.8 in /  34462.7 hPa West 9.7 mph /  15.6 km/h 17.7 mph /  28.5 km/h 46 % 0.0 in /  0 mm
18:42 31.6 °F /  -0.2 °C 18.9 °F /  -7.3 °C 1017.8 in /  34462.7 hPa NW 6.4 mph /  10.3 km/h 17.7 mph /  28.5 km/h 47 % 0.0 in /  0 mm
18:47 31.3 °F /  -0.4 °C 19.0 °F /  -7.2 °C 1017.8 in /  34462.7 hPa West 4.8 mph /  7.7 km/h 20.9 mph /  33.6 km/h 48 % 0.0 in /  0 mm
18:52 31.3 °F /  -0.4 °C 19.0 °F /  -7.2 °C 1017.8 in /  34462.7 hPa WNW 4.8 mph /  7.7 km/h 20.9 mph /  33.6 km/h 48 % 0.0 in /  0 mm
18:57 31.2 °F /  -0.4 °C 18.9 °F /  -7.3 °C 1017.8 in /  34462.7 hPa WNW 8.0 mph /  12.9 km/h 20.9 mph /  33.6 km/h 48 % 0.0 in /  0 mm
19:02 31.2 °F /  -0.4 °C 18.9 °F /  -7.3 °C 1017.5 in /  34452.6 hPa WNW 9.7 mph /  15.6 km/h 17.7 mph /  28.5 km/h 48 % 0.0 in /  0 mm
19:07 31.2 °F /  -0.4 °C 18.9 °F /  -7.3 °C 1017.5 in /  34452.6 hPa WNW 9.7 mph /  15.6 km/h 17.7 mph /  28.5 km/h 48 % 0.0 in /  0 mm
19:12 31.1 °F /  -0.5 °C 18.8 °F /  -7.3 °C 1017.5 in /  34452.6 hPa WNW 12.9 mph /  20.8 km/h 20.9 mph /  33.6 km/h 48 % 0.0 in /  0 mm
19:17 31.1 °F /  -0.5 °C 18.8 °F /  -7.3 °C 1017.5 in /  34452.6 hPa NW 8.0 mph /  12.9 km/h 20.9 mph /  33.6 km/h 48 % 0.0 in /  0 mm
19:22 31.1 °F /  -0.5 °C 18.8 °F /  -7.3 °C 1017.5 in /  34452.6 hPa WNW 4.8 mph /  7.7 km/h 20.9 mph /  33.6 km/h 48 % 0.0 in /  0 mm
19:27 31.2 °F /  -0.4 °C 19.2 °F /  -7.1 °C 1017.5 in /  34452.6 hPa WNW 1.6 mph /  2.6 km/h 17.7 mph /  28.5 km/h 49 % 0.0 in /  0 mm
19:32 31.1 °F /  -0.5 °C 18.8 °F /  -7.3 °C 1017.5 in /  34452.6 hPa WNW 9.7 mph /  15.6 km/h 17.7 mph /  28.5 km/h 48 % 0.0 in /  0 mm
19:37 31.0 °F /  -0.6 °C 18.7 °F /  -7.4 °C 1017.5 in /  34452.6 hPa West 6.4 mph /  10.3 km/h 14.5 mph /  23.3 km/h 48 % 0.0 in /  0 mm
19:42 30.9 °F /  -0.6 °C 18.6 °F /  -7.4 °C 1017.5 in /  34452.6 hPa WNW 3.2 mph /  5.1 km/h 14.5 mph /  23.3 km/h 48 % 0.0 in /  0 mm
19:47 30.9 °F /  -0.6 °C 18.9 °F /  -7.3 °C 1017.5 in /  34452.6 hPa WNW 3.2 mph /  5.1 km/h 14.5 mph /  23.3 km/h 49 % 0.0 in /  0 mm
19:52 30.9 °F /  -0.6 °C 18.9 °F /  -7.3 °C 1017.5 in /  34452.6 hPa WNW 8.0 mph /  12.9 km/h 14.5 mph /  23.3 km/h 49 % 0.0 in /  0 mm
19:57 30.9 °F /  -0.6 °C 18.9 °F /  -7.3 °C 1017.5 in /  34452.6 hPa WNW 12.9 mph /  20.8 km/h 12.9 mph /  20.8 km/h 49 % 0.0 in /  0 mm
20:02 30.8 °F /  -0.7 °C 19.2 °F /  -7.1 °C 1017.5 in /  34452.6 hPa WNW 4.8 mph /  7.7 km/h 12.9 mph /  20.8 km/h 50 % 0.0 in /  0 mm
20:12 30.9 °F /  -0.6 °C 19.3 °F /  -7.1 °C 1017.8 in /  34462.7 hPa NNW 4.8 mph /  7.7 km/h 12.9 mph /  20.8 km/h 50 % 0.0 in /  0 mm
20:17 30.7 °F /  -0.7 °C 19.4 °F /  -7 °C 1017.8 in /  34462.7 hPa Calm   11.3 mph /  18.2 km/h 51 % 0.0 in /  0 mm
20:22 30.7 °F /  -0.7 °C 19.4 °F /  -7 °C 1017.8 in /  34462.7 hPa WNW 1.6 mph /  2.6 km/h 9.7 mph /  15.6 km/h 51 % 0.0 in /  0 mm
20:27 30.7 °F /  -0.7 °C 19.4 °F /  -7 °C 1017.8 in /  34462.7 hPa WNW 1.6 mph /  2.6 km/h 9.7 mph /  15.6 km/h 51 % 0.0 in /  0 mm
20:32 30.7 °F /  -0.7 °C 19.4 °F /  -7 °C 1017.8 in /  34462.7 hPa North 9.7 mph /  15.6 km/h 9.7 mph /  15.6 km/h 51 % 0.0 in /  0 mm
20:37 30.3 °F /  -0.9 °C 19.3 °F /  -7.1 °C 1017.8 in /  34462.7 hPa NNE 6.4 mph /  10.3 km/h 11.3 mph /  18.2 km/h 52 % 0.0 in /  0 mm
20:42 30.1 °F /  -1.1 °C 19.2 °F /  -7.1 °C 1017.8 in /  34462.7 hPa North 6.4 mph /  10.3 km/h 11.3 mph /  18.2 km/h 52 % 0.0 in /  0 mm
20:47 29.9 °F /  -1.2 °C 19.3 °F /  -7.1 °C 1017.8 in /  34462.7 hPa NW 1.6 mph /  2.6 km/h 11.3 mph /  18.2 km/h 53 % 0.0 in /  0 mm
20:52 29.8 °F /  -1.2 °C 19.2 °F /  -7.1 °C 1017.8 in /  34462.7 hPa NNW 1.6 mph /  2.6 km/h 9.7 mph /  15.6 km/h 53 % 0.0 in /  0 mm
20:57 29.7 °F /  -1.3 °C 19.1 °F /  -7.2 °C 1017.8 in /  34462.7 hPa NNW 3.2 mph /  5.1 km/h 9.7 mph /  15.6 km/h 53 % 0.0 in /  0 mm
21:02 29.6 °F /  -1.3 °C 19.3 °F /  -7.1 °C 1017.8 in /  34462.7 hPa NW 1.6 mph /  2.6 km/h 4.8 mph /  7.7 km/h 54 % 0.0 in /  0 mm
21:07 29.4 °F /  -1.4 °C 19.1 °F /  -7.2 °C 1017.8 in /  34462.7 hPa Calm   4.8 mph /  7.7 km/h 54 % 0.0 in /  0 mm
21:17 29.1 °F /  -1.6 °C 19.1 °F /  -7.2 °C 1017.8 in /  34462.7 hPa Calm   1.6 mph /  2.6 km/h 55 % 0.0 in /  0 mm
21:22 28.9 °F /  -1.7 °C 19.0 °F /  -7.2 °C 1017.8 in /  34462.7 hPa Calm     55 % 0.0 in /  0 mm
21:32 28.4 °F /  -2 °C 18.8 °F /  -7.3 °C 1017.8 in /  34462.7 hPa Calm     56 % 0.0 in /  0 mm
21:37 28.2 °F /  -2.1 °C 18.9 °F /  -7.3 °C 1018.2 in /  34476.3 hPa Calm     57 % 0.0 in /  0 mm
21:42 27.9 °F /  -2.3 °C 19.1 °F /  -7.2 °C 1018.2 in /  34476.3 hPa Calm     59 % 0.0 in /  0 mm
21:47 27.6 °F /  -2.4 °C 19.1 °F /  -7.2 °C 1018.2 in /  34476.3 hPa Calm     60 % 0.0 in /  0 mm
21:52 27.0 °F /  -2.8 °C 18.8 °F /  -7.3 °C 1018.2 in /  34476.3 hPa Calm     61 % 0.0 in /  0 mm
21:57 26.8 °F /  -2.9 °C 19.2 °F /  -7.1 °C 1018.5 in /  34486.4 hPa Calm     63 % 0.0 in /  0 mm
22:02 26.5 °F /  -3.1 °C 19.1 °F /  -7.2 °C 1018.5 in /  34486.4 hPa Calm     64 % 0.0 in /  0 mm
22:12 26.2 °F /  -3.2 °C 19.1 °F /  -7.2 °C 1018.5 in /  34486.4 hPa Calm     65 % 0.0 in /  0 mm
22:17 25.9 °F /  -3.4 °C 19.1 °F /  -7.2 °C 1018.5 in /  34486.4 hPa Calm     66 % 0.0 in /  0 mm
22:22 25.7 °F /  -3.5 °C 19.1 °F /  -7.2 °C 1018.5 in /  34486.4 hPa Calm     67 % 0.0 in /  0 mm
22:27 25.3 °F /  -3.7 °C 19.0 °F /  -7.2 °C 1018.5 in /  34486.4 hPa Calm     68 % 0.0 in /  0 mm
22:32 25.1 °F /  -3.8 °C 19.0 °F /  -7.2 °C 1018.8 in /  34496.6 hPa Calm     69 % 0.0 in /  0 mm
22:37 25.0 °F /  -3.9 °C 19.1 °F /  -7.2 °C 1018.8 in /  34496.6 hPa Calm     70 % 0.0 in /  0 mm
22:42 24.8 °F /  -4 °C 19.2 °F /  -7.1 °C 1018.8 in /  34496.6 hPa Calm     71 % 0.0 in /  0 mm
22:52 24.7 °F /  -4.1 °C 19.3 °F /  -7.1 °C 1018.5 in /  34486.4 hPa Calm     72 % 0.0 in /  0 mm
22:57 24.4 °F /  -4.2 °C 19.0 °F /  -7.2 °C 1018.8 in /  34496.6 hPa Calm     72 % 0.0 in /  0 mm
23:02 24.2 °F /  -4.3 °C 19.1 °F /  -7.2 °C 1018.5 in /  34486.4 hPa Calm   3.2 mph /  5.1 km/h 73 % 0.0 in /  0 mm
23:07 24.1 °F /  -4.4 °C 19.2 °F /  -7.1 °C 1018.8 in /  34496.6 hPa Calm   3.2 mph /  5.1 km/h 74 % 0.0 in /  0 mm
23:12 24.1 °F /  -4.4 °C 19.2 °F /  -7.1 °C 1018.8 in /  34496.6 hPa NNW 1.6 mph /  2.6 km/h 3.2 mph /  5.1 km/h 74 % 0.0 in /  0 mm
23:17 23.9 °F /  -4.5 °C 19.2 °F /  -7.1 °C 1018.8 in /  34496.6 hPa Calm   4.8 mph /  7.7 km/h 75 % 0.0 in /  0 mm
23:22 23.8 °F /  -4.6 °C 19.1 °F /  -7.2 °C 1018.8 in /  34496.6 hPa Calm   4.8 mph /  7.7 km/h 75 % 0.0 in /  0 mm
23:27 23.8 °F /  -4.6 °C 19.1 °F /  -7.2 °C 1018.8 in /  34496.6 hPa Calm   3.2 mph /  5.1 km/h 75 % 0.0 in /  0 mm
23:32 23.7 °F /  -4.6 °C 19.0 °F /  -7.2 °C 1018.8 in /  34496.6 hPa Calm     75 % 0.0 in /  0 mm
23:37 23.6 °F /  -4.7 °C 19.1 °F /  -7.2 °C 1018.8 in /  34496.6 hPa Calm     76 % 0.0 in /  0 mm
23:42 23.4 °F /  -4.8 °C 18.9 °F /  -7.3 °C 1018.8 in /  34496.6 hPa Calm     76 % 0.0 in /  0 mm
23:47 23.3 °F /  -4.8 °C 18.8 °F /  -7.3 °C 1018.8 in /  34496.6 hPa Calm     76 % 0.0 in /  0 mm
23:52 23.2 °F /  -4.9 °C 18.9 °F /  -7.3 °C 1018.8 in /  34496.6 hPa Calm     77 % 0.0 in /  0 mm
23:57 23.0 °F /  -5 °C 19.0 °F /  -7.2 °C 1018.5 in /  34486.4 hPa Calm     78 % 0.0 in /  0 mm
Meteo18
Compliments of Weather Underground - 4 mb

Script developed by  Jim McMurry - jmcmurry@mwt.net Adapted for the template by  Wim van der Kuil - Leuven-Template.eu

You find our weather info also at:

European Weather Network

Weather Underground

Equipment we use:

Weather-station
Davis Vue

Weather-program
Meteobridge

Weather-server
Raspberry PI 2 B+

Provider
1 and 1

Davis Vue

Meteobridge

Raspberry PI 2 B+

1 and 1